Time,TemperatureF,DewpointF,PressureIn,WindDirection,WindDirectionDegrees,WindSpeedMPH,WindSpeedGustMPH,Humidity,HourlyPrecipIn,Conditions,Clouds,dailyrainin,SoftwareType,DateUTC
2013-03-12 00:00:00,34.4,30.8,29.87,West,270,12.1,12.1,87,0.00,,,0.17,WUHU216HW,2013-03-12 04:00:00,
2013-03-12 00:01:00,34.4,30.8,29.87,West,270,19.2,19.2,87,0.00,,,0.00,WUHU216HW,2013-03-12 04:01:00,
2013-03-12 00:06:00,34.4,30.8,29.87,West,270,19.2,19.2,87,0.00,,,0.00,WUHU216HW,2013-03-12 04:06:00,
2013-03-12 00:30:00,34.2,30.3,29.88,South,180,4.7,4.7,86,0.00,,,0.00,WUHU216HW,2013-03-12 04:30:00,
2013-03-12 00:35:00,34.2,30.3,29.88,WNW,293,8.5,8.5,86,0.00,,,0.00,WUHU216HW,2013-03-12 04:35:00,
2013-03-12 00:40:00,34.2,30.3,29.88,WNW,293,8.5,8.5,86,0.00,,,0.00,WUHU216HW,2013-03-12 04:40:00,
2013-03-12 01:00:00,34.6,30.7,29.89,WSW,248,9.4,9.4,86,0.00,,,0.00,WUHU216HW,2013-03-12 05:00:00,
2013-03-12 01:05:00,34.4,30.5,29.89,WNW,293,14.3,14.3,86,0.00,,,0.00,WUHU216HW,2013-03-12 05:05:00,
2013-03-12 01:10:00,34.4,30.5,29.89,WNW,293,14.3,14.3,86,0.00,,,0.00,WUHU216HW,2013-03-12 05:10:00,
2013-03-12 01:30:00,34.7,30.3,29.88,West,270,9.2,9.2,84,0.00,,,0.00,WUHU216HW,2013-03-12 05:30:00,
2013-03-12 01:35:00,34.7,30.3,29.88,SW,225,8.9,9.8,84,0.00,,,0.00,WUHU216HW,2013-03-12 05:35:00,
2013-03-12 01:40:00,34.7,30.3,29.88,SW,225,8.9,9.8,84,0.00,,,0.00,WUHU216HW,2013-03-12 05:40:00,
2013-03-12 02:00:00,34.6,30.2,29.88,WNW,293,8.9,8.9,84,0.00,,,0.00,WUHU216HW,2013-03-12 06:00:00,
2013-03-12 02:05:00,34.6,30.2,29.88,WNW,293,11.4,11.4,84,0.00,,,0.00,WUHU216HW,2013-03-12 06:05:00,
2013-03-12 02:10:00,34.6,30.2,29.88,WNW,293,11.4,11.4,84,0.00,,,0.00,WUHU216HW,2013-03-12 06:10:00,
2013-03-12 02:30:00,34.7,30.3,29.89,WNW,293,18.6,18.6,84,0.00,,,0.00,WUHU216HW,2013-03-12 06:30:00,
2013-03-12 02:35:00,34.6,30.2,29.89,WNW,293,18.6,18.6,84,0.00,,,0.00,WUHU216HW,2013-03-12 06:35:00,
2013-03-12 02:40:00,34.6,30.2,29.89,WNW,293,18.6,18.6,84,0.00,,,0.00,WUHU216HW,2013-03-12 06:40:00,
2013-03-12 03:00:00,34.4,30.0,29.89,WNW,293,8.7,8.7,84,0.00,,,0.00,WUHU216HW,2013-03-12 07:00:00,
2013-03-12 03:05:00,34.4,30.2,29.89,North,0,6.0,8.7,85,0.00,,,0.00,WUHU216HW,2013-03-12 07:05:00,
2013-03-12 03:10:00,34.4,30.2,29.89,North,0,6.0,8.7,85,0.00,,,0.00,WUHU216HW,2013-03-12 07:10:00,
2013-03-12 03:30:00,34.4,30.0,29.89,NW,315,8.9,8.9,84,0.00,,,0.00,WUHU216HW,2013-03-12 07:30:00,
2013-03-12 03:35:00,34.4,30.0,29.89,WNW,293,7.4,8.9,84,0.00,,,0.00,WUHU216HW,2013-03-12 07:35:00,
2013-03-12 03:40:00,34.4,30.0,29.89,WNW,293,7.4,7.4,84,0.00,,,0.00,WUHU216HW,2013-03-12 07:40:00,
2013-03-12 04:00:00,34.2,29.5,29.90,NW,315,6.7,6.7,83,0.00,,,0.00,WUHU216HW,2013-03-12 08:00:00,
2013-03-12 04:05:00,34.4,29.7,29.90,WNW,293,10.5,10.5,83,0.00,,,0.00,WUHU216HW,2013-03-12 08:05:00,
2013-03-12 04:10:00,34.4,29.7,29.90,WNW,293,10.5,10.5,83,0.00,,,0.00,WUHU216HW,2013-03-12 08:10:00,
2013-03-12 04:30:00,34.2,29.5,29.90,WNW,293,7.4,7.4,83,0.00,,,0.00,WUHU216HW,2013-03-12 08:30:00,
2013-03-12 04:35:00,34.2,29.5,29.90,WNW,293,12.1,12.1,83,0.00,,,0.00,WUHU216HW,2013-03-12 08:35:00,
2013-03-12 04:40:00,34.2,29.5,29.90,WNW,293,12.1,12.1,83,0.00,,,0.00,WUHU216HW,2013-03-12 08:40:00,
2013-03-12 05:00:00,34.2,29.2,29.90,NW,315,11.6,11.6,82,0.00,,,0.00,WUHU216HW,2013-03-12 09:00:00,
2013-03-12 05:05:00,34.2,29.2,29.90,North,0,10.5,11.6,82,0.00,,,0.00,WUHU216HW,2013-03-12 09:05:00,
2013-03-12 05:10:00,34.2,29.2,29.90,North,0,10.5,11.6,82,0.00,,,0.00,WUHU216HW,2013-03-12 09:10:00,
2013-03-12 05:30:00,33.8,28.3,29.90,West,270,9.2,9.2,80,0.00,,,0.00,WUHU216HW,2013-03-12 09:30:00,
2013-03-12 05:35:00,34.0,28.4,29.90,West,270,9.2,9.2,80,0.00,,,0.00,WUHU216HW,2013-03-12 09:35:00,
2013-03-12 05:40:00,34.0,28.4,29.90,West,270,9.2,9.2,80,0.00,,,0.00,WUHU216HW,2013-03-12 09:40:00,
2013-03-12 06:00:00,33.7,28.1,29.92,NNW,338,8.5,8.5,80,0.00,,,0.00,WUHU216HW,2013-03-12 10:00:00,
2013-03-12 06:05:00,33.5,27.9,29.92,NNW,338,8.5,8.5,80,0.00,,,0.00,WUHU216HW,2013-03-12 10:05:00,
2013-03-12 06:10:00,33.5,27.9,29.92,NNW,338,8.5,8.5,80,0.00,,,0.00,WUHU216HW,2013-03-12 10:10:00,
2013-03-12 06:30:00,33.5,27.3,29.92,West,270,14.8,14.8,78,0.00,,,0.00,WUHU216HW,2013-03-12 10:30:00,
2013-03-12 06:35:00,33.5,27.6,29.92,West,270,13.4,14.8,79,0.00,,,0.00,WUHU216HW,2013-03-12 10:35:00,
2013-03-12 06:40:00,33.5,27.6,29.92,West,270,13.4,14.8,79,0.00,,,0.00,WUHU216HW,2013-03-12 10:40:00,
2013-03-12 07:00:00,33.7,28.1,29.93,WNW,293,12.1,12.1,80,0.00,,,0.00,WUHU216HW,2013-03-12 11:00:00,
2013-03-12 07:05:00,33.7,28.1,29.93,WNW,293,18.3,18.3,80,0.00,,,0.00,WUHU216HW,2013-03-12 11:05:00,
2013-03-12 07:10:00,33.7,28.1,29.93,WNW,293,18.3,18.3,80,0.00,,,0.00,WUHU216HW,2013-03-12 11:10:00,
2013-03-12 07:30:00,33.5,28.3,29.93,WNW,293,12.3,12.3,81,0.00,,,0.00,WUHU216HW,2013-03-12 11:30:00,
2013-03-12 07:35:00,33.5,27.9,29.93,NW,315,15.0,15.0,80,0.00,,,0.00,WUHU216HW,2013-03-12 11:35:00,
2013-03-12 07:40:00,33.5,27.9,29.93,NW,315,15.0,15.0,80,0.00,,,0.00,WUHU216HW,2013-03-12 11:40:00,
2013-03-12 08:00:00,33.3,27.1,29.95,WNW,293,10.7,10.7,78,0.00,,,0.00,WUHU216HW,2013-03-12 12:00:00,
2013-03-12 08:05:00,33.3,27.1,29.95,WNW,293,12.8,12.8,78,0.00,,,0.00,WUHU216HW,2013-03-12 12:05:00,
2013-03-12 08:10:00,33.3,27.1,29.95,WNW,293,12.8,12.8,78,0.00,,,0.00,WUHU216HW,2013-03-12 12:10:00,
2013-03-12 08:30:00,33.1,27.0,29.95,WNW,293,7.6,7.6,78,0.00,,,0.00,WUHU216HW,2013-03-12 12:30:00,
2013-03-12 08:35:00,33.1,27.0,29.95,WNW,293,7.6,7.6,78,0.00,,,0.00,WUHU216HW,2013-03-12 12:35:00,
2013-03-12 08:40:00,33.1,27.0,29.95,WNW,293,7.6,7.6,78,0.00,,,0.00,WUHU216HW,2013-03-12 12:40:00,
2013-03-12 09:00:00,32.8,25.7,29.96,West,270,12.1,12.1,75,0.00,,,0.00,WUHU216HW,2013-03-12 13:00:00,
2013-03-12 09:05:00,32.8,25.7,29.96,West,270,21.9,21.9,75,0.00,,,0.00,WUHU216HW,2013-03-12 13:05:00,
2013-03-12 09:10:00,32.8,25.7,29.96,West,270,21.9,21.9,75,0.00,,,0.00,WUHU216HW,2013-03-12 13:10:00,
2013-03-12 09:30:00,32.4,24.7,29.97,NNW,338,11.2,11.2,73,0.00,,,0.00,WUHU216HW,2013-03-12 13:30:00,
2013-03-12 09:35:00,32.6,24.6,29.97,WNW,293,10.3,11.2,72,0.00,,,0.00,WUHU216HW,2013-03-12 13:35:00,
2013-03-12 09:40:00,32.6,24.6,29.97,WNW,293,10.3,11.2,72,0.00,,,0.00,WUHU216HW,2013-03-12 13:40:00,
2013-03-12 10:00:00,32.4,25.4,29.97,SW,225,10.3,10.3,75,0.00,,,0.00,WUHU216HW,2013-03-12 14:00:00,
2013-03-12 10:05:00,32.4,25.4,29.97,SW,225,9.2,11.4,75,0.00,,,0.00,WUHU216HW,2013-03-12 14:05:00,
2013-03-12 10:10:00,32.4,25.4,29.97,SW,225,9.2,11.4,75,0.00,,,0.00,WUHU216HW,2013-03-12 14:10:00,
2013-03-12 10:30:00,32.6,24.8,29.97,WNW,293,7.2,7.2,73,0.00,,,0.00,WUHU216HW,2013-03-12 14:30:00,
2013-03-12 10:35:00,32.8,25.0,29.97,WNW,293,8.9,8.9,73,0.00,,,0.00,WUHU216HW,2013-03-12 14:35:00,
2013-03-12 10:40:00,32.8,25.0,29.97,WNW,293,8.9,8.9,73,0.00,,,0.00,WUHU216HW,2013-03-12 14:40:00,
2013-03-12 11:00:00,32.8,25.0,29.98,WNW,293,13.6,13.6,73,0.00,,,0.00,WUHU216HW,2013-03-12 15:00:00,
2013-03-12 11:05:00,32.8,25.0,29.98,WNW,293,11.9,13.6,73,0.00,,,0.00,WUHU216HW,2013-03-12 15:05:00,
2013-03-12 11:10:00,32.8,25.0,29.98,WNW,293,11.9,13.6,73,0.00,,,0.00,WUHU216HW,2013-03-12 15:10:00,
2013-03-12 11:30:00,33.3,25.5,30.01,WSW,248,11.2,11.2,73,0.00,,,0.00,WUHU216HW,2013-03-12 15:30:00,
2013-03-12 11:35:00,33.3,25.5,30.01,WSW,248,12.1,12.1,73,0.00,,,0.00,WUHU216HW,2013-03-12 15:35:00,
2013-03-12 11:40:00,33.3,25.5,30.01,WSW,248,12.1,12.1,73,0.00,,,0.00,WUHU216HW,2013-03-12 15:40:00,
2013-03-12 12:00:00,34.7,26.6,30.00,West,270,8.5,8.5,72,0.00,,,0.00,WUHU216HW,2013-03-12 16:00:00,
2013-03-12 12:05:00,34.7,26.9,30.00,West,270,8.5,8.5,73,0.00,,,0.00,WUHU216HW,2013-03-12 16:05:00,
2013-03-12 12:10:00,34.7,26.9,30.00,West,270,8.5,8.5,73,0.00,,,0.00,WUHU216HW,2013-03-12 16:10:00,
2013-03-12 12:30:00,37.4,27.5,30.00,West,270,11.2,11.2,67,0.00,,,0.00,WUHU216HW,2013-03-12 16:30:00,
2013-03-12 12:35:00,37.4,27.5,30.00,West,270,15.4,15.4,67,0.00,,,0.00,WUHU216HW,2013-03-12 16:35:00,
2013-03-12 12:40:00,37.4,27.5,30.00,West,270,15.4,15.4,67,0.00,,,0.00,WUHU216HW,2013-03-12 16:40:00,
2013-03-12 13:00:00,38.5,28.1,30.00,SSW,203,7.4,7.4,66,0.00,,,0.00,WUHU216HW,2013-03-12 17:00:00,
2013-03-12 13:05:00,38.7,28.3,30.00,SW,225,10.7,10.7,66,0.00,,,0.00,WUHU216HW,2013-03-12 17:05:00,
2013-03-12 13:10:00,38.7,28.3,30.00,SW,225,10.7,10.7,66,0.00,,,0.00,WUHU216HW,2013-03-12 17:10:00,
2013-03-12 13:30:00,41.6,29.5,29.99,West,270,12.3,12.3,62,0.00,,,0.00,WUHU216HW,2013-03-12 17:30:00,
2013-03-12 13:35:00,41.6,29.5,29.99,West,270,12.3,12.3,62,0.00,,,0.00,WUHU216HW,2013-03-12 17:35:00,
2013-03-12 14:00:00,41.4,29.0,29.99,SW,225,13.9,13.9,61,0.00,,,0.00,WUHU216HW,2013-03-12 18:00:00,
2013-03-12 14:05:00,41.4,28.2,29.99,WNW,293,10.1,13.9,59,0.00,,,0.00,WUHU216HW,2013-03-12 18:05:00,
2013-03-12 14:10:00,41.4,28.2,29.99,WNW,293,10.1,12.1,59,0.00,,,0.00,WUHU216HW,2013-03-12 18:10:00,
2013-03-12 14:30:00,43.0,29.2,29.97,South,180,6.5,6.5,58,0.00,,,0.00,WUHU216HW,2013-03-12 18:30:00,
2013-03-12 14:31:00,43.0,29.2,29.97,West,270,7.8,7.8,58,0.00,,,0.00,WUHU216HW,2013-03-12 18:31:00,
2013-03-12 14:35:00,43.0,29.2,29.97,West,270,7.8,7.8,58,0.00,,,0.00,WUHU216HW,2013-03-12 18:35:00,
2013-03-12 14:40:00,43.0,29.2,29.97,West,270,7.8,7.8,58,0.00,,,0.00,WUHU216HW,2013-03-12 18:40:00,
2013-03-12 15:00:00,43.6,29.7,29.97,SSW,203,19.9,19.9,58,0.00,,,0.00,WUHU216HW,2013-03-12 19:00:00,
2013-03-12 15:05:00,43.7,29.9,29.97,SSW,203,20.1,20.1,58,0.00,,,0.00,WUHU216HW,2013-03-12 19:05:00,
2013-03-12 15:10:00,43.7,29.9,29.97,SSW,203,20.1,20.1,58,0.00,,,0.00,WUHU216HW,2013-03-12 19:10:00,
2013-03-12 15:30:00,43.4,27.8,29.97,SW,225,15.7,15.7,54,0.00,,,0.00,WUHU216HW,2013-03-12 19:30:00,
2013-03-12 15:35:00,43.2,27.6,29.97,SSW,203,10.1,15.7,54,0.00,,,0.00,WUHU216HW,2013-03-12 19:35:00,
2013-03-12 15:40:00,43.2,27.6,29.97,SSW,203,10.1,10.1,54,0.00,,,0.00,WUHU216HW,2013-03-12 19:40:00,
2013-03-12 16:00:00,42.7,27.5,29.96,SW,225,9.8,9.8,55,0.00,,,0.00,WUHU216HW,2013-03-12 20:00:00,
2013-03-12 16:05:00,42.5,27.8,29.96,NNW,338,10.5,10.5,56,0.00,,,0.00,WUHU216HW,2013-03-12 20:05:00,
2013-03-12 16:10:00,42.5,27.8,29.96,NNW,338,10.5,10.5,56,0.00,,,0.00,WUHU216HW,2013-03-12 20:10:00,
2013-03-12 16:30:00,43.0,27.0,29.96,West,270,20.6,20.6,53,0.00,,,0.00,WUHU216HW,2013-03-12 20:30:00,
2013-03-12 16:35:00,43.0,27.0,29.96,NW,315,16.3,20.6,53,0.00,,,0.00,WUHU216HW,2013-03-12 20:35:00,
2013-03-12 16:40:00,43.0,27.0,29.96,NW,315,16.3,20.6,53,0.00,,,0.00,WUHU216HW,2013-03-12 20:40:00,
2013-03-12 17:00:00,42.1,27.0,29.97,NW,315,11.6,11.6,55,0.00,,,0.00,WUHU216HW,2013-03-12 21:00:00,
2013-03-12 17:05:00,42.1,27.5,29.97,NNW,338,9.8,11.6,56,0.00,,,0.00,WUHU216HW,2013-03-12 21:05:00,
2013-03-12 17:10:00,42.1,27.5,29.97,NNW,338,9.8,11.6,56,0.00,,,0.00,WUHU216HW,2013-03-12 21:10:00,
2013-03-12 17:30:00,41.8,27.2,29.98,West,270,12.1,12.1,56,0.00,,,0.00,WUHU216HW,2013-03-12 21:30:00,
2013-03-12 17:35:00,41.8,27.2,29.98,WNW,293,12.3,12.3,56,0.00,,,0.00,WUHU216HW,2013-03-12 21:35:00,
2013-03-12 17:40:00,41.8,27.2,29.98,WNW,293,12.3,12.3,56,0.00,,,0.00,WUHU216HW,2013-03-12 21:40:00,
2013-03-12 18:00:00,41.0,27.4,29.98,WNW,293,12.8,12.8,58,0.00,,,0.00,WUHU216HW,2013-03-12 22:00:00,
2013-03-12 18:05:00,41.0,27.4,29.98,WSW,248,20.1,20.1,58,0.00,,,0.00,WUHU216HW,2013-03-12 22:05:00,
2013-03-12 18:10:00,41.0,27.4,29.98,WSW,248,20.1,20.1,58,0.00,,,0.00,WUHU216HW,2013-03-12 22:10:00,
2013-03-12 18:30:00,41.4,28.2,29.98,WNW,293,10.5,10.5,59,0.00,,,0.00,WUHU216HW,2013-03-12 22:30:00,
2013-03-12 18:35:00,41.4,28.2,29.98,WNW,293,15.0,18.8,59,0.00,,,0.00,WUHU216HW,2013-03-12 22:35:00,
2013-03-12 18:40:00,41.4,28.2,29.98,WNW,293,15.0,18.8,59,0.00,,,0.00,WUHU216HW,2013-03-12 22:40:00,
2013-03-12 19:00:00,40.3,29.4,29.99,WNW,293,23.7,23.7,65,0.00,,,0.00,WUHU216HW,2013-03-12 23:00:00,
2013-03-12 19:05:00,40.3,29.4,29.99,NNW,338,14.3,23.7,65,0.00,,,0.00,WUHU216HW,2013-03-12 23:05:00,
2013-03-12 19:10:00,40.3,29.4,29.99,NNW,338,14.3,23.7,65,0.00,,,0.00,WUHU216HW,2013-03-12 23:10:00,
2013-03-12 19:30:00,38.7,29.3,29.98,West,270,12.8,12.8,69,0.00,,,0.00,WUHU216HW,2013-03-12 23:30:00,
2013-03-12 19:35:00,38.7,29.3,29.98,West,270,10.5,12.8,69,0.00,,,0.00,WUHU216HW,2013-03-12 23:35:00,
2013-03-12 19:40:00,38.7,29.3,29.98,West,270,10.5,12.8,69,0.00,,,0.00,WUHU216HW,2013-03-12 23:40:00,
2013-03-12 20:00:00,38.9,30.2,30.00,WSW,248,16.3,16.3,71,0.00,,,0.00,WUHU216HW,2013-03-13 00:00:00,
2013-03-12 20:05:00,39.1,30.4,30.00,WNW,293,10.7,16.3,71,0.00,,,0.00,WUHU216HW,2013-03-13 00:05:00,
2013-03-12 20:10:00,39.1,30.4,30.00,WNW,293,10.7,10.7,71,0.00,,,0.00,WUHU216HW,2013-03-13 00:10:00,
2013-03-12 20:30:00,36.7,32.6,30.01,North,0,8.5,8.5,85,0.00,,,0.00,WUHU216HW,2013-03-13 00:30:00,
2013-03-12 20:35:00,36.7,32.6,30.01,SW,225,7.4,8.5,85,0.00,,,0.00,WUHU216HW,2013-03-13 00:35:00,
2013-03-12 20:40:00,36.7,32.6,30.01,SW,225,7.4,8.5,85,0.00,,,0.00,WUHU216HW,2013-03-13 00:40:00,
2013-03-12 21:00:00,35.5,31.9,30.02,WNW,293,5.6,5.6,87,0.01,,,0.00,WUHU216HW,2013-03-13 01:00:00,
2013-03-12 21:05:00,35.5,32.2,30.02,WSW,248,5.1,6.9,88,0.01,,,0.02,WUHU216HW,2013-03-13 01:05:00,
2013-03-12 21:10:00,35.5,32.2,30.02,WSW,248,5.1,6.9,88,0.01,,,0.02,WUHU216HW,2013-03-13 01:10:00,
2013-03-12 21:30:00,34.9,31.7,30.02,West,270,5.8,5.8,88,0.01,,,0.02,WUHU216HW,2013-03-13 01:30:00,
2013-03-12 21:35:00,34.9,31.3,30.02,SSW,203,6.9,6.9,87,0.01,,,0.02,WUHU216HW,2013-03-13 01:35:00,
2013-03-12 21:40:00,34.9,31.3,30.02,SSW,203,6.9,6.9,87,0.01,,,0.02,WUHU216HW,2013-03-13 01:40:00,
2013-03-12 22:00:00,34.9,31.1,30.03,WNW,293,12.1,12.1,86,0.00,,,0.02,WUHU216HW,2013-03-13 02:00:00,
2013-03-12 22:05:00,34.9,31.1,30.03,WNW,293,11.0,12.1,86,0.00,,,0.02,WUHU216HW,2013-03-13 02:05:00,
2013-03-12 22:10:00,34.9,31.1,30.03,WNW,293,11.0,12.1,86,0.00,,,0.02,WUHU216HW,2013-03-13 02:10:00,
2013-03-12 22:30:00,34.6,30.2,30.03,West,270,5.4,5.4,84,0.00,,,0.02,WUHU216HW,2013-03-13 02:30:00,
2013-03-12 22:35:00,34.6,30.2,30.03,NW,315,6.9,6.9,84,0.00,,,0.02,WUHU216HW,2013-03-13 02:35:00,
2013-03-12 22:40:00,34.6,30.2,30.03,NW,315,6.9,6.9,84,0.00,,,0.02,WUHU216HW,2013-03-13 02:40:00,
2013-03-12 23:00:00,34.2,29.8,30.03,WSW,248,5.8,5.8,84,0.00,,,0.02,WUHU216HW,2013-03-13 03:00:00,
2013-03-12 23:05:00,34.2,29.8,30.03,WSW,248,6.3,6.3,84,0.00,,,0.02,WUHU216HW,2013-03-13 03:05:00,
2013-03-12 23:10:00,34.2,29.8,30.03,WSW,248,6.3,6.3,84,0.00,,,0.02,WUHU216HW,2013-03-13 03:10:00,
2013-03-12 23:30:00,33.8,29.7,30.03,WSW,248,4.5,4.5,85,0.00,,,0.02,WUHU216HW,2013-03-13 03:30:00,
2013-03-12 23:35:00,33.8,29.7,30.03,WSW,248,9.2,9.2,85,0.00,,,0.02,WUHU216HW,2013-03-13 03:35:00,
2013-03-12 23:40:00,33.8,29.7,30.03,WSW,248,9.2,9.2,85,0.00,,,0.02,WUHU216HW,2013-03-13 03:40:00,